sensor_id;sensor_type;location;lat;lon;timestamp;P1;durP1;ratioP1;P2;durP2;ratioP2
16387;SDS011;8303;53.446;9.988;2022-12-07T05:46:51;5.77;;;4.67;;
16387;SDS011;8303;53.446;9.988;2022-12-07T05:49:24;6.67;;;4.80;;
16387;SDS011;8303;53.446;9.988;2022-12-07T05:51:52;8.07;;;5.00;;
16387;SDS011;8303;53.446;9.988;2022-12-07T05:54:19;5.43;;;4.77;;
16387;SDS011;8303;53.446;9.988;2022-12-07T05:56:53;4.77;;;4.27;;
16387;SDS011;8303;53.446;9.988;2022-12-07T05:59:22;6.70;;;5.07;;
16387;SDS011;8303;53.446;9.988;2022-12-07T06:01:50;4.87;;;4.47;;
16387;SDS011;8303;53.446;9.988;2022-12-07T06:04:27;7.17;;;5.00;;
16387;SDS011;8303;53.446;9.988;2022-12-07T06:06:56;7.90;;;4.73;;
16387;SDS011;8303;53.446;9.988;2022-12-07T06:09:24;6.63;;;4.23;;
16387;SDS011;8303;53.446;9.988;2022-12-07T06:11:53;4.63;;;4.07;;
16387;SDS011;8303;53.446;9.988;2022-12-07T06:14:40;6.60;;;5.27;;
16387;SDS011;8303;53.446;9.988;2022-12-07T06:17:11;9.63;;;5.13;;
16387;SDS011;8303;53.446;9.988;2022-12-07T06:19:39;4.70;;;4.30;;
16387;SDS011;8303;53.446;9.988;2022-12-07T06:22:08;8.00;;;5.03;;
16387;SDS011;8303;53.446;9.988;2022-12-07T06:24:36;6.23;;;4.30;;
16387;SDS011;8303;53.446;9.988;2022-12-07T06:27:04;5.80;;;4.80;;
16387;SDS011;8303;53.446;9.988;2022-12-07T06:29:36;5.90;;;4.07;;
16387;SDS011;8303;53.446;9.988;2022-12-07T06:32:07;6.43;;;4.37;;
16387;SDS011;8303;53.446;9.988;2022-12-07T06:34:38;9.40;;;7.07;;
16387;SDS011;8303;53.446;9.988;2022-12-07T06:37:05;6.17;;;4.40;;
16387;SDS011;8303;53.446;9.988;2022-12-07T06:39:32;6.00;;;4.50;;
16387;SDS011;8303;53.446;9.988;2022-12-07T06:42:00;8.30;;;5.00;;
16387;SDS011;8303;53.446;9.988;2022-12-07T06:44:27;6.63;;;4.57;;
16387;SDS011;8303;53.446;9.988;2022-12-07T06:46:55;4.80;;;4.40;;
16387;SDS011;8303;53.446;9.988;2022-12-07T06:49:23;6.47;;;4.50;;
16387;SDS011;8303;53.446;9.988;2022-12-07T06:51:51;6.40;;;4.43;;
16387;SDS011;8303;53.446;9.988;2022-12-07T06:54:18;6.47;;;4.00;;
16387;SDS011;8303;53.446;9.988;2022-12-07T06:56:45;8.37;;;4.77;;
16387;SDS011;8303;53.446;9.988;2022-12-07T06:59:12;6.87;;;4.80;;
16387;SDS011;8303;53.446;9.988;2022-12-07T07:01:40;12.40;;;4.97;;
16387;SDS011;8303;53.446;9.988;2022-12-07T07:04:12;7.00;;;4.60;;
16387;SDS011;8303;53.446;9.988;2022-12-07T07:06:41;6.03;;;4.20;;
16387;SDS011;8303;53.446;9.988;2022-12-07T07:09:08;6.03;;;3.70;;
16387;SDS011;8303;53.446;9.988;2022-12-07T07:11:35;5.87;;;4.07;;
16387;SDS011;8303;53.446;9.988;2022-12-07T07:14:03;7.00;;;4.37;;
16387;SDS011;8303;53.446;9.988;2022-12-07T07:16:30;7.17;;;3.73;;
16387;SDS011;8303;53.446;9.988;2022-12-07T07:18:57;7.57;;;3.87;;
16387;SDS011;8303;53.446;9.988;2022-12-07T07:21:25;4.20;;;3.73;;
16387;SDS011;8303;53.446;9.988;2022-12-07T07:23:53;6.03;;;4.10;;
16387;SDS011;8303;53.446;9.988;2022-12-07T07:26:23;3.87;;;3.20;;
16387;SDS011;8303;53.446;9.988;2022-12-07T07:28:50;6.13;;;3.70;;
16387;SDS011;8303;53.446;9.988;2022-12-07T07:31:18;4.80;;;4.07;;
16387;SDS011;8303;53.446;9.988;2022-12-07T07:33:45;4.77;;;3.87;;
16387;SDS011;8303;53.446;9.988;2022-12-07T07:36:12;5.10;;;3.60;;
16387;SDS011;8303;53.446;9.988;2022-12-07T07:38:39;7.33;;;3.90;;
16387;SDS011;8303;53.446;9.988;2022-12-07T07:41:08;4.93;;;3.50;;
16387;SDS011;8303;53.446;9.988;2022-12-07T07:43:38;3.70;;;3.27;;
16387;SDS011;8303;53.446;9.988;2022-12-07T07:46:05;9.33;;;3.60;;
16387;SDS011;8303;53.446;9.988;2022-12-07T07:48:33;4.57;;;4.07;;
16387;SDS011;8303;53.446;9.988;2022-12-07T07:50:59;6.87;;;3.57;;
16387;SDS011;8303;53.446;9.988;2022-12-07T07:53:27;8.00;;;4.03;;
16387;SDS011;8303;53.446;9.988;2022-12-07T07:55:54;4.97;;;3.30;;
16387;SDS011;8303;53.446;9.988;2022-12-07T07:58:22;6.57;;;3.33;;
16387;SDS011;8303;53.446;9.988;2022-12-07T08:00:50;13.83;;;3.87;;
16387;SDS011;8303;53.446;9.988;2022-12-07T08:03:18;8.93;;;3.80;;
16387;SDS011;8303;53.446;9.988;2022-12-07T08:05:45;5.13;;;3.27;;
16387;SDS011;8303;53.446;9.988;2022-12-07T08:08:12;7.67;;;3.43;;
16387;SDS011;8303;53.446;9.988;2022-12-07T08:10:39;7.60;;;3.70;;
16387;SDS011;8303;53.446;9.988;2022-12-07T08:13:06;5.97;;;3.63;;
16387;SDS011;8303;53.446;9.988;2022-12-07T08:15:41;7.63;;;4.27;;
16387;SDS011;8303;53.446;9.988;2022-12-07T08:18:10;11.80;;;4.20;;
16387;SDS011;8303;53.446;9.988;2022-12-07T08:20:38;4.53;;;3.03;;
16387;SDS011;8303;53.446;9.988;2022-12-07T08:23:06;6.97;;;3.30;;
16387;SDS011;8303;53.446;9.988;2022-12-07T08:25:36;6.30;;;3.93;;
16387;SDS011;8303;53.446;9.988;2022-12-07T08:28:03;6.57;;;3.63;;
16387;SDS011;8303;53.446;9.988;2022-12-07T08:30:31;8.53;;;3.37;;
16387;SDS011;8303;53.446;9.988;2022-12-07T08:33:00;7.60;;;3.67;;
16387;SDS011;8303;53.446;9.988;2022-12-07T08:35:27;5.97;;;3.43;;
16387;SDS011;8303;53.446;9.988;2022-12-07T08:37:54;7.47;;;4.10;;
16387;SDS011;8303;53.446;9.988;2022-12-07T08:40:23;8.40;;;3.60;;
16387;SDS011;8303;53.446;9.988;2022-12-07T08:42:50;8.20;;;3.73;;
16387;SDS011;8303;53.446;9.988;2022-12-07T08:45:18;4.97;;;4.37;;
16387;SDS011;8303;53.446;9.988;2022-12-07T08:47:47;10.67;;;4.60;;
16387;SDS011;8303;53.446;9.988;2022-12-07T08:50:19;4.80;;;3.30;;
16387;SDS011;8303;53.446;9.988;2022-12-07T08:52:48;9.47;;;4.33;;
16387;SDS011;8303;53.446;9.988;2022-12-07T08:55:17;4.40;;;3.63;;
16387;SDS011;8303;53.446;9.988;2022-12-07T08:57:45;8.00;;;3.93;;
16387;SDS011;8303;53.446;9.988;2022-12-07T09:00:15;7.07;;;3.37;;
16387;SDS011;8303;53.446;9.988;2022-12-07T09:02:43;9.20;;;3.47;;
16387;SDS011;8303;53.446;9.988;2022-12-07T09:05:10;5.83;;;3.70;;
16387;SDS011;8303;53.446;9.988;2022-12-07T09:07:41;4.07;;;3.50;;
16387;SDS011;8303;53.446;9.988;2022-12-07T09:10:09;5.43;;;3.60;;
16387;SDS011;8303;53.446;9.988;2022-12-07T09:12:37;6.20;;;3.60;;
16387;SDS011;8303;53.446;9.988;2022-12-07T09:15:04;8.83;;;4.10;;
16387;SDS011;8303;53.446;9.988;2022-12-07T09:17:33;4.57;;;3.57;;
16387;SDS011;8303;53.446;9.988;2022-12-07T09:20:01;5.17;;;3.43;;
16387;SDS011;8303;53.446;9.988;2022-12-07T09:22:29;5.77;;;3.70;;
16387;SDS011;8303;53.446;9.988;2022-12-07T09:25:08;7.13;;;4.20;;
16387;SDS011;8303;53.446;9.988;2022-12-07T09:27:36;3.87;;;3.33;;
16387;SDS011;8303;53.446;9.988;2022-12-07T09:30:03;21.77;;;19.67;;
16387;SDS011;8303;53.446;9.988;2022-12-07T09:32:31;9.37;;;3.57;;
16387;SDS011;8303;53.446;9.988;2022-12-07T09:34:58;11.03;;;3.40;;
16387;SDS011;8303;53.446;9.988;2022-12-07T09:37:25;7.93;;;4.20;;
16387;SDS011;8303;53.446;9.988;2022-12-07T09:39:52;4.00;;;3.53;;
16387;SDS011;8303;53.446;9.988;2022-12-07T09:42:27;9.60;;;3.90;;
16387;SDS011;8303;53.446;9.988;2022-12-07T09:44:58;7.83;;;3.47;;
16387;SDS011;8303;53.446;9.988;2022-12-07T09:47:25;5.30;;;3.40;;
16387;SDS011;8303;53.446;9.988;2022-12-07T09:49:54;5.10;;;4.53;;
16387;SDS011;8303;53.446;9.988;2022-12-07T09:52:26;5.17;;;3.63;;
16387;SDS011;8303;53.446;9.988;2022-12-07T09:54:55;6.57;;;3.60;;
16387;SDS011;8303;53.446;9.988;2022-12-07T09:57:25;4.87;;;3.50;;
16387;SDS011;8303;53.446;9.988;2022-12-07T09:59:56;7.67;;;3.27;;
16387;SDS011;8303;53.446;9.988;2022-12-07T10:02:34;4.30;;;3.53;;
16387;SDS011;8303;53.446;9.988;2022-12-07T10:05:07;5.97;;;3.53;;
16387;SDS011;8303;53.446;9.988;2022-12-07T10:07:39;8.63;;;3.13;;
16387;SDS011;8303;53.446;9.988;2022-12-07T10:10:12;4.57;;;3.27;;
16387;SDS011;8303;53.446;9.988;2022-12-07T10:12:54;4.83;;;3.00;;
16387;SDS011;8303;53.446;9.988;2022-12-07T10:15:36;4.53;;;3.07;;
16387;SDS011;8303;53.446;9.988;2022-12-07T10:18:19;3.50;;;3.07;;
16387;SDS011;8303;53.446;9.988;2022-12-07T10:21:03;3.93;;;2.73;;
16387;SDS011;8303;53.446;9.988;2022-12-07T10:23:39;3.33;;;3.10;;
16387;SDS011;8303;53.446;9.988;2022-12-07T10:26:26;3.13;;;2.83;;
16387;SDS011;8303;53.446;9.988;2022-12-07T10:28:57;3.07;;;2.60;;
16387;SDS011;8303;53.446;9.988;2022-12-07T10:31:26;5.30;;;3.00;;
16387;SDS011;8303;53.446;9.988;2022-12-07T10:33:55;4.33;;;2.63;;
16387;SDS011;8303;53.446;9.988;2022-12-07T10:36:23;4.00;;;2.83;;
16387;SDS011;8303;53.446;9.988;2022-12-07T10:38:52;4.00;;;2.40;;
16387;SDS011;8303;53.446;9.988;2022-12-07T10:41:25;2.70;;;2.50;;
16387;SDS011;8303;53.446;9.988;2022-12-07T10:43:53;3.47;;;3.07;;
16387;SDS011;8303;53.446;9.988;2022-12-07T10:49:28;3.50;;;3.07;;
16387;SDS011;8303;53.446;9.988;2022-12-07T10:52:06;4.30;;;3.63;;
16387;SDS011;8303;53.446;9.988;2022-12-07T10:54:42;4.33;;;2.90;;
16387;SDS011;8303;53.446;9.988;2022-12-07T10:57:24;6.17;;;3.07;;
16387;SDS011;8303;53.446;9.988;2022-12-07T11:00:03;5.10;;;4.03;;
16387;SDS011;8303;53.446;9.988;2022-12-07T11:02:40;5.83;;;3.00;;
16387;SDS011;8303;53.446;9.988;2022-12-07T11:05:31;2.77;;;2.60;;
16387;SDS011;8303;53.446;9.988;2022-12-07T11:08:14;4.50;;;3.30;;
16387;SDS011;8303;53.446;9.988;2022-12-07T11:10:49;7.83;;;3.23;;
16387;SDS011;8303;53.446;9.988;2022-12-07T11:13:28;3.70;;;3.03;;
16387;SDS011;8303;53.446;9.988;2022-12-07T11:16:08;4.77;;;3.03;;
16387;SDS011;8303;53.446;9.988;2022-12-07T11:19:10;6.60;;;2.93;;
16387;SDS011;8303;53.446;9.988;2022-12-07T11:21:45;10.37;;;3.67;;
16387;SDS011;8303;53.446;9.988;2022-12-07T11:24:18;5.73;;;3.10;;
16387;SDS011;8303;53.446;9.988;2022-12-07T11:26:58;14.70;;;3.83;;
16387;SDS011;8303;53.446;9.988;2022-12-07T11:29:40;4.00;;;3.07;;
16387;SDS011;8303;53.446;9.988;2022-12-07T11:32:22;4.30;;;3.60;;
16387;SDS011;8303;53.446;9.988;2022-12-07T11:35:08;3.83;;;2.80;;
16387;SDS011;8303;53.446;9.988;2022-12-07T11:37:40;5.23;;;3.50;;
16387;SDS011;8303;53.446;9.988;2022-12-07T11:40:13;4.67;;;3.00;;
16387;SDS011;8303;53.446;9.988;2022-12-07T11:42:46;4.00;;;2.80;;
16387;SDS011;8303;53.446;9.988;2022-12-07T11:45:25;4.00;;;3.13;;
16387;SDS011;8303;53.446;9.988;2022-12-07T11:47:56;6.50;;;3.47;;
16387;SDS011;8303;53.446;9.988;2022-12-07T11:50:30;5.57;;;3.73;;
16387;SDS011;8303;53.446;9.988;2022-12-07T11:53:01;10.47;;;4.33;;
16387;SDS011;8303;53.446;9.988;2022-12-07T11:55:40;5.77;;;4.27;;
16387;SDS011;8303;53.446;9.988;2022-12-07T11:58:14;4.93;;;3.33;;
16387;SDS011;8303;53.446;9.988;2022-12-07T12:01:05;5.13;;;3.63;;
16387;SDS011;8303;53.446;9.988;2022-12-07T12:03:40;6.50;;;3.07;;
16387;SDS011;8303;53.446;9.988;2022-12-07T12:06:12;11.97;;;4.53;;
16387;SDS011;8303;53.446;9.988;2022-12-07T12:08:41;8.30;;;3.50;;
16387;SDS011;8303;53.446;9.988;2022-12-07T12:11:14;4.03;;;3.23;;
16387;SDS011;8303;53.446;9.988;2022-12-07T12:14:11;9.37;;;3.43;;
16387;SDS011;8303;53.446;9.988;2022-12-07T12:17:11;5.13;;;3.00;;
16387;SDS011;8303;53.446;9.988;2022-12-07T12:19:57;5.60;;;3.23;;
16387;SDS011;8303;53.446;9.988;2022-12-07T12:22:32;7.63;;;3.80;;
16387;SDS011;8303;53.446;9.988;2022-12-07T12:25:03;4.00;;;3.10;;
16387;SDS011;8303;53.446;9.988;2022-12-07T12:27:33;8.03;;;3.30;;
16387;SDS011;8303;53.446;9.988;2022-12-07T12:30:03;7.20;;;3.10;;
16387;SDS011;8303;53.446;9.988;2022-12-07T12:32:34;8.53;;;3.53;;
16387;SDS011;8303;53.446;9.988;2022-12-07T12:35:20;6.20;;;3.10;;
16387;SDS011;8303;53.446;9.988;2022-12-07T12:37:57;8.17;;;3.50;;
16387;SDS011;8303;53.446;9.988;2022-12-07T12:40:53;9.83;;;3.23;;
16387;SDS011;8303;53.446;9.988;2022-12-07T12:55:15;7.30;;;2.70;;
16387;SDS011;8303;53.446;9.988;2022-12-07T13:04:28;7.60;;;3.20;;
16387;SDS011;8303;53.446;9.988;2022-12-07T13:10:28;6.63;;;3.43;;
16387;SDS011;8303;53.446;9.988;2022-12-07T13:22:08;14.03;;;3.50;;
16387;SDS011;8303;53.446;9.988;2022-12-07T13:25:21;14.00;;;5.53;;
16387;SDS011;8303;53.446;9.988;2022-12-07T13:27:57;14.70;;;5.70;;
16387;SDS011;8303;53.446;9.988;2022-12-07T13:30:27;7.17;;;4.40;;
16387;SDS011;8303;53.446;9.988;2022-12-07T13:32:56;6.77;;;4.17;;
16387;SDS011;8303;53.446;9.988;2022-12-07T13:35:32;10.07;;;4.00;;
16387;SDS011;8303;53.446;9.988;2022-12-07T13:38:01;7.50;;;3.70;;
16387;SDS011;8303;53.446;9.988;2022-12-07T13:40:32;6.10;;;5.60;;
16387;SDS011;8303;53.446;9.988;2022-12-07T13:43:00;9.27;;;3.40;;
16387;SDS011;8303;53.446;9.988;2022-12-07T13:45:29;5.73;;;3.30;;
16387;SDS011;8303;53.446;9.988;2022-12-07T13:48:18;7.90;;;3.60;;
16387;SDS011;8303;53.446;9.988;2022-12-07T13:50:53;11.50;;;3.57;;
16387;SDS011;8303;53.446;9.988;2022-12-07T13:53:21;5.43;;;3.40;;
16387;SDS011;8303;53.446;9.988;2022-12-07T13:55:49;8.93;;;3.67;;
16387;SDS011;8303;53.446;9.988;2022-12-07T13:58:17;9.00;;;4.10;;
16387;SDS011;8303;53.446;9.988;2022-12-07T14:00:44;6.33;;;3.40;;
16387;SDS011;8303;53.446;9.988;2022-12-07T14:03:25;9.13;;;3.67;;
16387;SDS011;8303;53.446;9.988;2022-12-07T14:06:14;5.73;;;3.50;;
16387;SDS011;8303;53.446;9.988;2022-12-07T14:08:43;9.03;;;3.90;;
16387;SDS011;8303;53.446;9.988;2022-12-07T14:11:14;6.43;;;3.93;;
16387;SDS011;8303;53.446;9.988;2022-12-07T14:13:45;8.67;;;3.30;;
16387;SDS011;8303;53.446;9.988;2022-12-07T14:16:25;6.70;;;3.43;;
16387;SDS011;8303;53.446;9.988;2022-12-07T14:18:54;6.73;;;3.77;;
16387;SDS011;8303;53.446;9.988;2022-12-07T14:21:22;8.60;;;4.23;;
16387;SDS011;8303;53.446;9.988;2022-12-07T14:24:04;7.33;;;3.33;;
16387;SDS011;8303;53.446;9.988;2022-12-07T14:26:38;7.00;;;3.57;;
16387;SDS011;8303;53.446;9.988;2022-12-07T14:29:18;7.17;;;3.60;;
16387;SDS011;8303;53.446;9.988;2022-12-07T14:31:56;10.07;;;3.63;;
16387;SDS011;8303;53.446;9.988;2022-12-07T14:34:23;6.87;;;3.80;;
16387;SDS011;8303;53.446;9.988;2022-12-07T14:36:51;11.10;;;4.00;;
16387;SDS011;8303;53.446;9.988;2022-12-07T14:39:18;10.57;;;3.87;;
16387;SDS011;8303;53.446;9.988;2022-12-07T14:41:46;4.93;;;4.37;;
16387;SDS011;8303;53.446;9.988;2022-12-07T14:44:19;7.67;;;5.23;;
16387;SDS011;8303;53.446;9.988;2022-12-07T14:46:47;7.73;;;3.23;;
16387;SDS011;8303;53.446;9.988;2022-12-07T14:49:15;10.33;;;3.77;;
16387;SDS011;8303;53.446;9.988;2022-12-07T14:51:42;13.40;;;4.30;;
16387;SDS011;8303;53.446;9.988;2022-12-07T14:54:13;11.47;;;3.50;;
16387;SDS011;8303;53.446;9.988;2022-12-07T14:56:43;7.67;;;3.40;;
16387;SDS011;8303;53.446;9.988;2022-12-07T14:59:15;8.47;;;3.90;;
16387;SDS011;8303;53.446;9.988;2022-12-07T15:01:42;5.20;;;3.47;;
16387;SDS011;8303;53.446;9.988;2022-12-07T15:04:09;6.50;;;3.47;;
16387;SDS011;8303;53.446;9.988;2022-12-07T15:06:36;11.83;;;3.23;;
16387;SDS011;8303;53.446;9.988;2022-12-07T15:09:03;8.30;;;3.57;;
16387;SDS011;8303;53.446;9.988;2022-12-07T15:11:30;6.57;;;3.33;;
16387;SDS011;8303;53.446;9.988;2022-12-07T15:13:57;10.23;;;4.13;;
16387;SDS011;8303;53.446;9.988;2022-12-07T15:16:39;5.53;;;2.93;;
16387;SDS011;8303;53.446;9.988;2022-12-07T15:19:09;12.87;;;4.30;;
16387;SDS011;8303;53.446;9.988;2022-12-07T15:21:38;5.37;;;3.53;;
16387;SDS011;8303;53.446;9.988;2022-12-07T15:24:05;10.47;;;3.73;;
16387;SDS011;8303;53.446;9.988;2022-12-07T15:26:32;7.90;;;4.10;;
16387;SDS011;8303;53.446;9.988;2022-12-07T15:28:59;8.73;;;4.70;;
16387;SDS011;8303;53.446;9.988;2022-12-07T15:31:26;11.07;;;5.20;;
16387;SDS011;8303;53.446;9.988;2022-12-07T15:33:54;11.60;;;4.83;;
16387;SDS011;8303;53.446;9.988;2022-12-07T15:36:22;6.70;;;4.20;;
16387;SDS011;8303;53.446;9.988;2022-12-07T15:38:50;10.37;;;4.03;;
16387;SDS011;8303;53.446;9.988;2022-12-07T15:41:18;12.83;;;5.87;;
16387;SDS011;8303;53.446;9.988;2022-12-07T15:43:45;26.13;;;10.83;;
16387;SDS011;8303;53.446;9.988;2022-12-07T15:46:29;13.63;;;5.33;;
16387;SDS011;8303;53.446;9.988;2022-12-07T15:48:58;13.10;;;5.17;;
16387;SDS011;8303;53.446;9.988;2022-12-07T15:51:26;11.53;;;4.70;;
16387;SDS011;8303;53.446;9.988;2022-12-07T15:53:53;10.50;;;4.87;;
16387;SDS011;8303;53.446;9.988;2022-12-07T15:56:20;7.97;;;4.27;;
16387;SDS011;8303;53.446;9.988;2022-12-07T15:58:47;11.10;;;4.33;;
16387;SDS011;8303;53.446;9.988;2022-12-07T16:01:14;11.10;;;5.83;;
16387;SDS011;8303;53.446;9.988;2022-12-07T16:03:43;8.10;;;4.77;;
16387;SDS011;8303;53.446;9.988;2022-12-07T16:06:12;8.57;;;4.40;;
16387;SDS011;8303;53.446;9.988;2022-12-07T16:08:41;9.33;;;4.70;;
16387;SDS011;8303;53.446;9.988;2022-12-07T16:11:09;12.80;;;4.50;;
16387;SDS011;8303;53.446;9.988;2022-12-07T16:13:36;8.70;;;3.80;;
16387;SDS011;8303;53.446;9.988;2022-12-07T16:16:04;9.13;;;4.27;;
16387;SDS011;8303;53.446;9.988;2022-12-07T16:18:32;11.30;;;5.10;;
16387;SDS011;8303;53.446;9.988;2022-12-07T16:20:59;5.37;;;3.80;;
16387;SDS011;8303;53.446;9.988;2022-12-07T16:23:28;10.73;;;5.27;;
16387;SDS011;8303;53.446;9.988;2022-12-07T16:26:00;7.30;;;4.57;;
16387;SDS011;8303;53.446;9.988;2022-12-07T16:28:30;14.67;;;6.10;;
16387;SDS011;8303;53.446;9.988;2022-12-07T16:30:59;8.37;;;5.77;;
16387;SDS011;8303;53.446;9.988;2022-12-07T16:33:27;9.07;;;5.70;;
16387;SDS011;8303;53.446;9.988;2022-12-07T16:35:54;13.97;;;6.17;;
16387;SDS011;8303;53.446;9.988;2022-12-07T16:38:21;9.77;;;6.30;;
16387;SDS011;8303;53.446;9.988;2022-12-07T16:40:49;10.47;;;5.87;;
16387;SDS011;8303;53.446;9.988;2022-12-07T16:43:17;10.63;;;5.70;;
16387;SDS011;8303;53.446;9.988;2022-12-07T16:45:44;9.20;;;5.67;;
16387;SDS011;8303;53.446;9.988;2022-12-07T16:48:12;8.67;;;6.03;;
16387;SDS011;8303;53.446;9.988;2022-12-07T16:50:39;8.67;;;5.87;;
16387;SDS011;8303;53.446;9.988;2022-12-07T16:53:07;14.33;;;6.30;;
16387;SDS011;8303;53.446;9.988;2022-12-07T16:55:35;12.37;;;6.20;;
16387;SDS011;8303;53.446;9.988;2022-12-07T16:58:04;10.43;;;6.00;;
16387;SDS011;8303;53.446;9.988;2022-12-07T17:00:31;10.53;;;5.57;;
16387;SDS011;8303;53.446;9.988;2022-12-07T17:02:58;9.70;;;5.77;;
16387;SDS011;8303;53.446;9.988;2022-12-07T17:05:26;7.43;;;5.47;;
16387;SDS011;8303;53.446;9.988;2022-12-07T17:07:54;12.37;;;6.47;;
16387;SDS011;8303;53.446;9.988;2022-12-07T17:10:21;10.03;;;5.90;;
16387;SDS011;8303;53.446;9.988;2022-12-07T17:12:49;13.27;;;7.00;;
16387;SDS011;8303;53.446;9.988;2022-12-07T17:15:18;14.13;;;7.30;;
16387;SDS011;8303;53.446;9.988;2022-12-07T17:17:51;13.37;;;6.60;;
16387;SDS011;8303;53.446;9.988;2022-12-07T17:20:20;9.67;;;6.47;;
16387;SDS011;8303;53.446;9.988;2022-12-07T17:22:48;13.47;;;7.60;;
16387;SDS011;8303;53.446;9.988;2022-12-07T17:25:15;10.17;;;7.67;;
16387;SDS011;8303;53.446;9.988;2022-12-07T17:27:43;13.10;;;6.67;;
16387;SDS011;8303;53.446;9.988;2022-12-07T17:30:11;10.40;;;6.53;;
16387;SDS011;8303;53.446;9.988;2022-12-07T17:32:40;11.67;;;7.60;;
16387;SDS011;8303;53.446;9.988;2022-12-07T17:35:07;10.93;;;7.07;;
16387;SDS011;8303;53.446;9.988;2022-12-07T17:37:35;10.57;;;7.50;;
16387;SDS011;8303;53.446;9.988;2022-12-07T17:40:02;12.07;;;7.63;;
16387;SDS011;8303;53.446;9.988;2022-12-07T17:42:30;12.97;;;7.37;;
16387;SDS011;8303;53.446;9.988;2022-12-07T17:45:04;10.50;;;7.03;;
16387;SDS011;8303;53.446;9.988;2022-12-07T17:47:33;10.90;;;7.10;;
16387;SDS011;8303;53.446;9.988;2022-12-07T17:50:02;10.93;;;7.50;;
16387;SDS011;8303;53.446;9.988;2022-12-07T17:52:29;13.10;;;7.10;;
16387;SDS011;8303;53.446;9.988;2022-12-07T17:55:13;15.40;;;8.43;;
16387;SDS011;8303;53.446;9.988;2022-12-07T17:57:41;13.10;;;8.23;;
16387;SDS011;8303;53.446;9.988;2022-12-07T18:00:08;10.40;;;7.70;;
16387;SDS011;8303;53.446;9.988;2022-12-07T18:02:36;16.63;;;8.67;;
16387;SDS011;8303;53.446;9.988;2022-12-07T18:05:05;18.30;;;8.67;;
16387;SDS011;8303;53.446;9.988;2022-12-07T18:07:33;16.17;;;9.53;;
16387;SDS011;8303;53.446;9.988;2022-12-07T18:10:00;14.33;;;9.90;;
16387;SDS011;8303;53.446;9.988;2022-12-07T18:12:27;13.60;;;10.20;;
16387;SDS011;8303;53.446;9.988;2022-12-07T18:14:54;28.53;;;12.00;;
16387;SDS011;8303;53.446;9.988;2022-12-07T18:17:21;18.87;;;9.33;;
16387;SDS011;8303;53.446;9.988;2022-12-07T18:19:48;14.17;;;9.67;;
16387;SDS011;8303;53.446;9.988;2022-12-07T18:22:16;12.47;;;8.13;;
16387;SDS011;8303;53.446;9.988;2022-12-07T18:24:45;12.33;;;8.37;;
16387;SDS011;8303;53.446;9.988;2022-12-07T18:27:12;16.07;;;8.10;;
16387;SDS011;8303;53.446;9.988;2022-12-07T18:29:39;16.77;;;11.03;;
16387;SDS011;8303;53.446;9.988;2022-12-07T18:32:07;12.60;;;7.87;;
16387;SDS011;8303;53.446;9.988;2022-12-07T18:34:34;12.77;;;8.23;;
16387;SDS011;8303;53.446;9.988;2022-12-07T18:37:01;15.50;;;8.57;;
16387;SDS011;8303;53.446;9.988;2022-12-07T18:39:30;13.13;;;8.70;;
16387;SDS011;8303;53.446;9.988;2022-12-07T18:42:04;15.30;;;8.63;;
16387;SDS011;8303;53.446;9.988;2022-12-07T18:44:31;13.90;;;8.37;;
16387;SDS011;8303;53.446;9.988;2022-12-07T18:46:58;17.70;;;9.80;;
16387;SDS011;8303;53.446;9.988;2022-12-07T18:49:25;19.13;;;11.63;;
16387;SDS011;8303;53.446;9.988;2022-12-07T18:51:52;16.00;;;10.03;;
16387;SDS011;8303;53.446;9.988;2022-12-07T18:54:19;16.17;;;10.57;;
16387;SDS011;8303;53.446;9.988;2022-12-07T18:56:48;17.60;;;9.87;;
16387;SDS011;8303;53.446;9.988;2022-12-07T18:59:15;12.67;;;9.10;;
16387;SDS011;8303;53.446;9.988;2022-12-07T19:01:59;21.80;;;9.90;;
16387;SDS011;8303;53.446;9.988;2022-12-07T19:04:26;22.40;;;12.10;;
16387;SDS011;8303;53.446;9.988;2022-12-07T19:06:53;18.30;;;12.23;;
16387;SDS011;8303;53.446;9.988;2022-12-07T19:09:20;19.73;;;10.83;;
16387;SDS011;8303;53.446;9.988;2022-12-07T19:11:49;23.17;;;11.07;;
16387;SDS011;8303;53.446;9.988;2022-12-07T19:14:17;14.63;;;10.10;;
16387;SDS011;8303;53.446;9.988;2022-12-07T19:16:46;16.40;;;9.33;;
16387;SDS011;8303;53.446;9.988;2022-12-07T19:19:15;21.73;;;12.33;;
16387;SDS011;8303;53.446;9.988;2022-12-07T19:21:43;23.57;;;12.13;;
16387;SDS011;8303;53.446;9.988;2022-12-07T19:24:10;18.03;;;12.07;;
16387;SDS011;8303;53.446;9.988;2022-12-07T19:26:38;19.73;;;12.30;;
16387;SDS011;8303;53.446;9.988;2022-12-07T19:29:07;21.77;;;13.63;;
16387;SDS011;8303;53.446;9.988;2022-12-07T19:31:34;22.30;;;14.73;;
16387;SDS011;8303;53.446;9.988;2022-12-07T19:34:01;24.73;;;13.50;;
16387;SDS011;8303;53.446;9.988;2022-12-07T19:36:33;20.20;;;12.33;;
16387;SDS011;8303;53.446;9.988;2022-12-07T19:39:01;24.73;;;14.80;;
16387;SDS011;8303;53.446;9.988;2022-12-07T19:41:28;26.03;;;13.87;;
16387;SDS011;8303;53.446;9.988;2022-12-07T19:44:04;22.97;;;14.43;;
16387;SDS011;8303;53.446;9.988;2022-12-07T19:46:33;26.53;;;15.63;;
16387;SDS011;8303;53.446;9.988;2022-12-07T19:49:01;27.27;;;15.93;;
16387;SDS011;8303;53.446;9.988;2022-12-07T19:51:28;31.63;;;18.57;;
16387;SDS011;8303;53.446;9.988;2022-12-07T19:53:56;17.47;;;12.27;;
16387;SDS011;8303;53.446;9.988;2022-12-07T19:56:24;21.10;;;12.03;;
16387;SDS011;8303;53.446;9.988;2022-12-07T19:58:52;18.13;;;12.90;;
16387;SDS011;8303;53.446;9.988;2022-12-07T20:01:20;15.63;;;10.50;;
16387;SDS011;8303;53.446;9.988;2022-12-07T20:03:49;14.20;;;9.90;;
16387;SDS011;8303;53.446;9.988;2022-12-07T20:06:16;17.70;;;10.00;;
16387;SDS011;8303;53.446;9.988;2022-12-07T20:08:45;12.43;;;9.07;;
16387;SDS011;8303;53.446;9.988;2022-12-07T20:11:13;12.90;;;9.90;;
16387;SDS011;8303;53.446;9.988;2022-12-07T20:13:59;14.97;;;9.00;;
16387;SDS011;8303;53.446;9.988;2022-12-07T20:16:26;17.63;;;9.37;;
16387;SDS011;8303;53.446;9.988;2022-12-07T20:18:55;13.40;;;8.83;;
16387;SDS011;8303;53.446;9.988;2022-12-07T20:21:21;13.47;;;9.17;;
16387;SDS011;8303;53.446;9.988;2022-12-07T20:23:49;13.43;;;8.90;;
16387;SDS011;8303;53.446;9.988;2022-12-07T20:26:18;10.70;;;8.43;;
16387;SDS011;8303;53.446;9.988;2022-12-07T20:28:45;14.67;;;8.63;;
16387;SDS011;8303;53.446;9.988;2022-12-07T20:31:12;14.17;;;8.47;;
16387;SDS011;8303;53.446;9.988;2022-12-07T20:33:40;13.13;;;7.70;;
16387;SDS011;8303;53.446;9.988;2022-12-07T20:36:12;11.00;;;7.37;;
16387;SDS011;8303;53.446;9.988;2022-12-07T20:38:39;15.27;;;7.50;;
16387;SDS011;8303;53.446;9.988;2022-12-07T20:41:08;13.57;;;7.03;;
16387;SDS011;8303;53.446;9.988;2022-12-07T20:43:57;11.20;;;7.30;;
16387;SDS011;8303;53.446;9.988;2022-12-07T20:46:24;8.97;;;7.27;;
16387;SDS011;8303;53.446;9.988;2022-12-07T20:48:51;15.30;;;7.53;;
16387;SDS011;8303;53.446;9.988;2022-12-07T20:51:20;10.37;;;8.23;;
16387;SDS011;8303;53.446;9.988;2022-12-07T20:53:47;11.40;;;8.23;;
16387;SDS011;8303;53.446;9.988;2022-12-07T20:56:18;11.93;;;8.83;;
16387;SDS011;8303;53.446;9.988;2022-12-07T20:58:45;16.00;;;9.10;;
16387;SDS011;8303;53.446;9.988;2022-12-07T21:01:13;12.87;;;9.27;;
16387;SDS011;8303;53.446;9.988;2022-12-07T21:03:40;17.53;;;10.93;;
16387;SDS011;8303;53.446;9.988;2022-12-07T21:06:09;13.70;;;10.33;;
16387;SDS011;8303;53.446;9.988;2022-12-07T21:08:43;24.57;;;12.90;;
16387;SDS011;8303;53.446;9.988;2022-12-07T21:11:11;21.30;;;12.67;;
16387;SDS011;8303;53.446;9.988;2022-12-07T21:13:38;23.37;;;13.57;;
16387;SDS011;8303;53.446;9.988;2022-12-07T21:16:06;23.37;;;12.17;;
16387;SDS011;8303;53.446;9.988;2022-12-07T21:18:34;21.93;;;13.00;;
16387;SDS011;8303;53.446;9.988;2022-12-07T21:21:02;24.73;;;14.43;;
16387;SDS011;8303;53.446;9.988;2022-12-07T21:23:30;30.87;;;14.47;;
16387;SDS011;8303;53.446;9.988;2022-12-07T21:25:59;27.00;;;14.33;;
16387;SDS011;8303;53.446;9.988;2022-12-07T21:28:26;23.23;;;14.73;;
